Time;durP1;ratioP1;P1;durP2;ratioP2;P2;SDS_P1;SDS_P2;PMS_P1;PMS_P2;Temp;Humidity;BMP_temperature;BMP_pressure;BME280_temperature;BME280_humidity;BME280_pressure;Samples;Min_cycle;Max_cycle;Signal;HPM_P1;HPM_P2
2021/04/09 00:00:27;;;;;;;15.87;8.33;;;9.30;82.60;;;;;;5061170;28;20435;-74
2021/04/09 00:02:56;;;;;;;15.27;8.65;;;9.30;82.70;;;;;;5048688;28;20438;-76
2021/04/09 00:05:23;;;;;;;17.43;8.60;;;9.30;82.90;;;;;;5061158;28;20956;-76
2021/04/09 00:07:50;;;;;;;16.13;8.93;;;9.30;83.00;;;;;;5059834;28;20980;-76
2021/04/09 00:10:19;;;;;;;16.63;9.20;;;9.30;83.20;;;;;;5041694;28;20429;-74
2021/04/09 00:12:45;;;;;;;18.90;8.90;;;9.30;83.20;;;;;;5064761;28;20462;-75
2021/04/09 00:15:12;;;;;;;17.02;9.00;;;9.30;83.10;;;;;;5063067;28;20419;-75
2021/04/09 00:17:39;;;;;;;15.27;9.10;;;9.30;83.20;;;;;;5038731;28;20447;-74
2021/04/09 00:20:07;;;;;;;15.30;9.27;;;9.30;83.40;;;;;;5044415;28;20427;-75
2021/04/09 00:22:33;;;;;;;15.48;9.10;;;9.30;83.40;;;;;;5060022;28;20433;-75
2021/04/09 00:25:00;;;;;;;20.38;10.00;;;9.30;83.20;;;;;;5059446;28;20983;-75
2021/04/09 00:27:27;;;;;;;17.92;9.35;;;9.30;83.10;;;;;;5042893;28;20433;-76
2021/04/09 00:29:53;;;;;;;14.93;9.15;;;9.30;83.20;;;;;;5066600;28;20431;-75
2021/04/09 00:32:19;;;;;;;17.65;9.32;;;9.30;83.00;;;;;;5069103;28;20533;-75
2021/04/09 00:34:46;;;;;;;16.02;9.00;;;9.30;82.80;;;;;;5062375;28;20411;-74
2021/04/09 00:37:12;;;;;;;16.20;9.20;;;9.30;82.80;;;;;;5060492;28;20447;-75
2021/04/09 00:39:39;;;;;;;20.33;9.15;;;9.30;82.80;;;;;;5061921;28;20485;-76
2021/04/09 00:42:07;;;;;;;15.93;8.95;;;9.30;82.50;;;;;;5063056;28;20423;-76
2021/04/09 00:44:33;;;;;;;14.77;9.05;;;9.30;82.30;;;;;;5060322;28;20425;-76
2021/04/09 00:47:00;;;;;;;15.05;8.85;;;9.30;82.30;;;;;;5047923;28;20919;-75
2021/04/09 00:49:26;;;;;;;15.80;8.88;;;9.30;81.90;;;;;;5057453;28;20433;-75
2021/04/09 00:51:53;;;;;;;13.23;9.10;;;9.30;81.70;;;;;;5063177;28;20871;-76
2021/04/09 00:54:19;;;;;;;16.35;9.50;;;9.30;81.70;;;;;;5041414;28;20423;-76
2021/04/09 00:56:47;;;;;;;16.52;9.63;;;9.40;81.80;;;;;;5066613;28;20429;-75
2021/04/09 00:59:14;;;;;;;18.70;9.52;;;9.30;81.50;;;;;;5061287;28;20429;-74
2021/04/09 01:01:40;;;;;;;15.98;9.48;;;9.40;81.70;;;;;;5060256;28;20431;-76
2021/04/09 01:04:07;;;;;;;17.43;10.30;;;9.30;81.90;;;;;;5063217;28;20441;-74
2021/04/09 01:06:34;;;;;;;19.50;10.20;;;9.30;81.80;;;;;;5061025;28;20437;-76
2021/04/09 01:09:02;;;;;;;20.70;10.50;;;9.30;81.90;;;;;;5040031;28;20423;-75
2021/04/09 01:11:29;;;;;;;17.55;10.48;;;9.40;82.10;;;;;;5055488;28;20419;-76
2021/04/09 01:13:55;;;;;;;18.42;10.52;;;9.40;82.20;;;;;;5061515;28;20945;-74
2021/04/09 01:16:32;;;;;;;18.38;10.80;;;9.40;82.20;;;;;;5060749;28;20431;-74
2021/04/09 01:19:05;;;;;;;20.00;10.90;;;9.40;82.30;;;;;;5062766;28;20475;-76
2021/04/09 01:21:37;;;;;;;21.50;11.33;;;9.40;82.70;;;;;;5061041;28;20461;-76
2021/04/09 01:24:13;;;;;;;21.10;11.23;;;9.40;83.00;;;;;;5064774;28;20417;-75
2021/04/09 01:27:22;;;;;;;22.50;11.00;;;9.40;83.20;;;;;;5063929;28;20454;-75
2021/04/09 01:30:17;;;;;;;21.48;10.93;;;9.40;83.60;;;;;;5060054;28;20431;-74
2021/04/09 01:32:44;;;;;;;23.23;11.25;;;9.40;83.90;;;;;;5039433;28;20574;-75
2021/04/09 01:35:15;;;;;;;23.45;11.57;;;9.40;84.30;;;;;;5058026;28;20416;-75
2021/04/09 01:37:45;;;;;;;24.67;10.95;;;9.50;84.70;;;;;;5060367;28;20407;-75
2021/04/09 01:40:21;;;;;;;21.17;10.97;;;9.50;84.90;;;;;;5069334;27;1655409;-75
2021/04/09 01:42:52;;;;;;;27.45;11.15;;;9.50;85.10;;;;;;5107265;28;20404;-76
2021/04/09 01:45:21;;;;;;;20.05;11.35;;;9.50;85.50;;;;;;5105168;28;20421;-76
2021/04/09 01:47:49;;;;;;;22.83;11.17;;;9.50;85.90;;;;;;5107196;28;20927;-77
2021/04/09 01:50:18;;;;;;;23.75;11.30;;;9.50;86.30;;;;;;5108750;28;20431;-76
2021/04/09 01:52:48;;;;;;;23.35;11.05;;;9.50;86.60;;;;;;5104648;28;20409;-75
2021/04/09 01:55:18;;;;;;;23.67;10.38;;;9.50;86.80;;;;;;5086747;28;20751;-76
2021/04/09 01:57:45;;;;;;;21.75;10.43;;;9.50;87.00;;;;;;5113133;28;20401;-75
2021/04/09 02:00:15;;;;;;;19.25;10.10;;;9.60;87.30;;;;;;5101968;28;20432;-76
2021/04/09 02:02:44;;;;;;;19.83;10.32;;;9.60;87.60;;;;;;5107760;28;21308;-76
2021/04/09 02:05:15;;;;;;;20.35;10.43;;;9.60;88.00;;;;;;5102249;28;20417;-75
2021/04/09 02:07:43;;;;;;;22.65;10.75;;;9.60;88.40;;;;;;5086922;28;20425;-76
2021/04/09 02:10:12;;;;;;;24.00;11.05;;;9.60;89.00;;;;;;5088506;28;20435;-75
2021/04/09 02:12:40;;;;;;;27.10;11.32;;;9.60;89.40;;;;;;5087419;28;20428;-76
2021/04/09 02:15:09;;;;;;;24.47;10.97;;;9.60;89.90;;;;;;5102725;28;20498;-77
2021/04/09 02:17:36;;;;;;;20.67;10.55;;;9.60;90.00;;;;;;5107360;28;20421;-75
2021/04/09 02:20:06;;;;;;;23.30;10.65;;;9.60;90.20;;;;;;5084951;28;20429;-76
2021/04/09 02:22:34;;;;;;;22.95;10.43;;;9.60;90.40;;;;;;5105388;28;20444;-76
2021/04/09 02:25:00;;;;;;;22.80;9.95;;;9.60;90.50;;;;;;5085263;28;20510;-76
2021/04/09 02:27:27;;;;;;;22.50;10.20;;;9.60;90.70;;;;;;5111589;28;20405;-76
2021/04/09 02:29:55;;;;;;;21.25;10.45;;;9.50;90.90;;;;;;5105108;28;20428;-77
2021/04/09 02:32:23;;;;;;;26.50;10.50;;;9.50;91.20;;;;;;5096834;28;20431;-76
2021/04/09 02:34:49;;;;;;;25.92;10.20;;;9.50;91.40;;;;;;5105836;28;20502;-76
2021/04/09 02:37:17;;;;;;;25.20;10.00;;;9.50;91.70;;;;;;5106536;28;20999;-76
2021/04/09 02:39:45;;;;;;;23.02;9.73;;;9.50;92.00;;;;;;5089555;28;20444;-76
2021/04/09 02:42:12;;;;;;;25.27;9.07;;;9.50;92.20;;;;;;5085350;28;20471;-76
2021/04/09 02:44:39;;;;;;;22.50;8.95;;;9.50;92.40;;;;;;5086683;28;20912;-77
2021/04/09 02:47:11;;;;;;;22.97;8.70;;;9.50;92.50;;;;;;5082932;28;20423;-76
2021/04/09 02:49:39;;;;;;;20.85;8.57;;;9.50;92.70;;;;;;5081897;28;20422;-76
2021/04/09 02:52:08;;;;;;;18.73;8.25;;;9.40;92.90;;;;;;5067357;28;20425;-77
2021/04/09 02:54:36;;;;;;;28.20;9.00;;;9.40;93.10;;;;;;5098030;28;20432;-77
2021/04/09 02:57:04;;;;;;;17.73;7.88;;;9.40;93.30;;;;;;5090435;28;20786;-76
2021/04/09 02:59:32;;;;;;;20.58;7.78;;;9.40;93.60;;;;;;5084340;28;20506;-77
2021/04/09 03:01:59;;;;;;;22.30;8.07;;;9.40;93.80;;;;;;5088133;28;20421;-76
2021/04/09 03:04:28;;;;;;;22.65;7.53;;;9.40;93.90;;;;;;5097060;28;20421;-76
2021/04/09 03:06:56;;;;;;;22.08;7.47;;;9.40;94.00;;;;;;5094187;28;20798;-77
2021/04/09 03:09:23;;;;;;;22.73;7.15;;;9.40;94.20;;;;;;5090980;28;20430;-78
2021/04/09 03:11:49;;;;;;;21.08;7.30;;;9.40;94.40;;;;;;5092890;28;20512;-76
2021/04/09 03:14:16;;;;;;;20.65;6.63;;;9.40;94.90;;;;;;5090080;28;20497;-76
2021/04/09 03:16:46;;;;;;;24.08;6.53;;;9.40;94.80;;;;;;5093118;28;20467;-76
2021/04/09 03:19:13;;;;;;;19.83;6.35;;;9.40;95.00;;;;;;5095200;28;20872;-76
2021/04/09 03:21:40;;;;;;;18.20;5.70;;;9.30;95.10;;;;;;5088827;28;20449;-76
2021/04/09 03:24:08;;;;;;;18.23;5.97;;;9.40;95.30;;;;;;5088018;28;20429;-77
2021/04/09 03:26:35;;;;;;;18.02;5.93;;;9.40;95.40;;;;;;5090988;28;20412;-76
2021/04/09 03:29:01;;;;;;;20.05;6.10;;;9.30;95.50;;;;;;5090020;28;20894;-77
2021/04/09 03:31:27;;;;;;;18.17;5.63;;;9.30;95.80;;;;;;5089327;28;20433;-77
2021/04/09 03:33:54;;;;;;;20.20;6.07;;;9.30;96.00;;;;;;5088644;28;20430;-76
2021/04/09 03:36:20;;;;;;;18.98;5.70;;;9.30;96.30;;;;;;5087610;28;20431;-76
2021/04/09 03:38:48;;;;;;;19.77;5.38;;;9.30;96.50;;;;;;5069515;28;20500;-75
2021/04/09 03:41:14;;;;;;;20.52;5.68;;;9.30;96.60;;;;;;5070553;28;20485;-77
2021/04/09 03:43:41;;;;;;;18.73;5.50;;;9.30;96.70;;;;;;5089087;28;20426;-77
2021/04/09 03:46:07;;;;;;;18.63;5.60;;;9.30;96.90;;;;;;5070072;28;20422;-76
2021/04/09 03:48:35;;;;;;;20.40;5.38;;;9.30;97.10;;;;;;5088588;28;20418;-76
2021/04/09 03:51:01;;;;;;;21.85;5.85;;;9.30;97.30;;;;;;5087896;28;20418;-77
2021/04/09 03:53:28;;;;;;;21.10;5.50;;;9.20;97.40;;;;;;5095685;28;20421;-76
2021/04/09 03:55:55;;;;;;;18.83;5.63;;;9.20;97.70;;;;;;5092429;28;20436;-76
2021/04/09 03:58:22;;;;;;;19.58;5.70;;;9.20;97.80;;;;;;5087492;28;20959;-77
2021/04/09 04:00:48;;;;;;;17.97;5.47;;;9.20;97.90;;;;;;5087585;28;20421;-77
2021/04/09 04:03:14;;;;;;;20.23;5.32;;;9.20;98.00;;;;;;5094587;28;20900;-75
2021/04/09 04:05:41;;;;;;;19.35;5.35;;;9.20;98.10;;;;;;5094408;28;20431;-77
2021/04/09 04:08:07;;;;;;;21.52;5.70;;;9.20;98.20;;;;;;5070333;28;20418;-77
2021/04/09 04:10:34;;;;;;;16.98;5.72;;;9.20;98.30;;;;;;5102383;28;20922;-76
2021/04/09 04:13:01;;;;;;;22.65;6.05;;;9.20;98.50;;;;;;5092186;28;20429;-77
2021/04/09 04:15:28;;;;;;;17.55;5.95;;;9.20;98.60;;;;;;5074158;28;20945;-77
2021/04/09 04:17:54;;;;;;;21.58;5.50;;;9.20;98.70;;;;;;5090733;28;20398;-76
2021/04/09 04:20:20;;;;;;;17.50;5.60;;;9.20;98.80;;;;;;5088435;28;20952;-76
2021/04/09 04:22:47;;;;;;;18.97;5.70;;;9.20;98.90;;;;;;5070164;28;20483;-76
2021/04/09 04:25:13;;;;;;;25.00;5.35;;;9.20;99.10;;;;;;5089651;28;20436;-76
2021/04/09 04:27:40;;;;;;;17.67;5.93;;;9.20;99.10;;;;;;5092252;28;20538;-76
2021/04/09 04:30:09;;;;;;;21.42;5.65;;;9.20;99.30;;;;;;5085698;28;20516;-75
2021/04/09 04:32:36;;;;;;;18.23;5.50;;;9.30;99.40;;;;;;5070021;28;20442;-78
2021/04/09 04:35:02;;;;;;;21.10;5.32;;;9.20;99.50;;;;;;5072295;28;20406;-75
2021/04/09 04:37:29;;;;;;;21.90;5.45;;;9.30;99.60;;;;;;5094547;28;20426;-76
2021/04/09 04:39:55;;;;;;;26.40;6.23;;;9.30;99.60;;;;;;5094158;28;20434;-77
2021/04/09 04:42:22;;;;;;;18.67;5.43;;;9.30;99.80;;;;;;5088610;28;20921;-78
2021/04/09 04:44:48;;;;;;;22.60;5.50;;;9.30;99.80;;;;;;5073273;28;20419;-77
2021/04/09 04:47:15;;;;;;;20.17;5.38;;;9.30;99.90;;;;;;5096310;28;20522;-77
2021/04/09 04:49:42;;;;;;;15.48;5.15;;;9.30;99.90;;;;;;5090650;28;20503;-77
2021/04/09 04:52:08;;;;;;;20.60;5.10;;;9.30;99.90;;;;;;5094217;28;20435;-77
2021/04/09 04:54:34;;;;;;;20.23;5.28;;;9.30;99.90;;;;;;5096720;28;20421;-76
2021/04/09 04:57:01;;;;;;;20.73;5.18;;;9.30;99.90;;;;;;5091789;28;20409;-77
2021/04/09 04:59:27;;;;;;;19.80;5.28;;;9.40;99.90;;;;;;5068278;28;20422;-77
2021/04/09 05:01:54;;;;;;;20.23;5.20;;;9.40;99.90;;;;;;5068676;28;20914;-78
2021/04/09 05:04:22;;;;;;;18.90;4.80;;;9.40;99.90;;;;;;5089499;28;20437;-76
2021/04/09 05:06:48;;;;;;;21.75;4.95;;;9.50;99.90;;;;;;5095109;28;20424;-78
2021/04/09 05:09:14;;;;;;;21.75;5.15;;;9.50;99.90;;;;;;5073243;28;20416;-79
2021/04/09 05:11:41;;;;;;;19.00;5.07;;;9.50;99.90;;;;;;5094403;28;20435;-76
2021/04/09 05:14:07;;;;;;;15.27;4.70;;;9.50;99.90;;;;;;5086852;28;20443;-76
2021/04/09 05:16:34;;;;;;;16.75;4.50;;;9.50;99.90;;;;;;5071785;28;20417;-78
2021/04/09 05:19:00;;;;;;;21.38;5.18;;;9.40;99.90;;;;;;5071144;28;20475;-78
2021/04/09 05:21:28;;;;;;;20.93;4.73;;;9.50;99.90;;;;;;5077765;28;20440;-77
2021/04/09 05:23:54;;;;;;;19.98;4.75;;;9.40;99.90;;;;;;5089874;28;20496;-77
2021/04/09 05:26:20;;;;;;;21.17;4.50;;;9.40;99.90;;;;;;5093310;28;20536;-77
2021/04/09 05:28:47;;;;;;;22.92;5.03;;;9.40;99.90;;;;;;5072472;28;20516;-78
2021/04/09 05:31:13;;;;;;;17.80;4.27;;;9.40;99.90;;;;;;5090207;28;20425;-78
2021/04/09 05:33:40;;;;;;;17.25;4.18;;;9.40;99.80;;;;;;5073784;28;21246;-77
2021/04/09 05:36:07;;;;;;;17.55;4.78;;;9.40;99.90;;;;;;5098306;28;20400;-78
2021/04/09 05:38:34;;;;;;;19.38;4.32;;;9.40;99.90;;;;;;5077651;28;20473;-77
2021/04/09 05:41:00;;;;;;;17.88;4.65;;;9.40;99.90;;;;;;5089694;28;20434;-77
2021/04/09 05:43:27;;;;;;;17.02;4.15;;;9.40;99.90;;;;;;5092414;28;20434;-77
2021/04/09 05:45:53;;;;;;;21.42;4.97;;;9.40;99.90;;;;;;5088948;28;20438;-77
2021/04/09 05:48:20;;;;;;;18.03;4.10;;;9.40;99.90;;;;;;5087862;28;20425;-76
2021/04/09 05:50:46;;;;;;;16.13;4.07;;;9.40;99.90;;;;;;5087626;28;20428;-77
2021/04/09 05:53:13;;;;;;;13.23;4.03;;;9.40;99.90;;;;;;5093390;28;20481;-77
2021/04/09 05:55:41;;;;;;;21.52;4.38;;;9.50;99.90;;;;;;5072174;28;20502;-75
2021/04/09 05:58:08;;;;;;;18.58;4.13;;;9.40;99.90;;;;;;5086279;28;20468;-79
2021/04/09 06:00:34;;;;;;;20.70;4.18;;;9.50;99.90;;;;;;5099752;28;20529;-76
2021/04/09 06:03:00;;;;;;;19.95;4.28;;;9.50;99.90;;;;;;5069045;28;20432;-75
2021/04/09 06:05:27;;;;;;;18.77;3.80;;;9.50;99.90;;;;;;5073093;28;20429;-77
2021/04/09 06:07:53;;;;;;;18.48;3.95;;;9.50;99.90;;;;;;5098165;28;20457;-75
2021/04/09 06:10:20;;;;;;;19.60;4.00;;;9.50;99.90;;;;;;5095601;28;20406;-75
2021/04/09 06:12:48;;;;;;;20.63;4.30;;;9.60;99.90;;;;;;5090899;28;20411;-77
2021/04/09 06:15:15;;;;;;;16.13;3.92;;;9.60;99.80;;;;;;5092851;28;20975;-78
2021/04/09 06:17:42;;;;;;;23.63;4.28;;;9.60;99.80;;;;;;5097472;28;20435;-74
2021/04/09 06:20:09;;;;;;;17.67;4.00;;;9.60;99.70;;;;;;5087898;28;20469;-75
2021/04/09 06:22:36;;;;;;;20.27;4.13;;;9.60;99.70;;;;;;5073009;28;20779;-76
2021/04/09 06:25:05;;;;;;;17.27;3.77;;;9.60;99.60;;;;;;5090407;28;20871;-76
2021/04/09 06:27:31;;;;;;;23.13;4.70;;;9.60;99.90;;;;;;5094968;28;20976;-76
2021/04/09 06:29:59;;;;;;;16.30;4.00;;;9.60;99.60;;;;;;5079588;28;20428;-76
2021/04/09 06:32:26;;;;;;;22.58;4.00;;;9.60;99.60;;;;;;5078381;28;20416;-76
2021/04/09 06:34:52;;;;;;;19.02;3.72;;;9.60;99.70;;;;;;5089617;28;20417;-76
2021/04/09 06:37:19;;;;;;;14.98;3.67;;;9.60;99.60;;;;;;5095671;28;20404;-76
2021/04/09 06:39:45;;;;;;;19.50;3.77;;;9.60;99.60;;;;;;5072931;28;20437;-75
2021/04/09 06:42:15;;;;;;;17.88;3.65;;;9.70;99.50;;;;;;5076155;28;20424;-76
2021/04/09 06:44:42;;;;;;;21.77;3.95;;;9.70;99.60;;;;;;5091348;28;20436;-76
2021/04/09 06:47:09;;;;;;;18.30;4.00;;;9.70;99.50;;;;;;5074021;28;20443;-74
2021/04/09 06:49:36;;;;;;;18.75;3.85;;;9.80;99.40;;;;;;5092037;28;20497;-75
2021/04/09 06:52:02;;;;;;;18.77;3.92;;;9.80;99.20;;;;;;5092980;28;20509;-75
2021/04/09 06:54:30;;;;;;;18.35;3.35;;;9.90;98.80;;;;;;5076161;28;20515;-75
2021/04/09 06:56:58;;;;;;;17.20;3.60;;;9.90;98.70;;;;;;5082392;28;20421;-78
2021/04/09 06:59:29;;;;;;;16.80;3.70;;;9.90;98.30;;;;;;5098117;28;20430;-75
2021/04/09 07:01:57;;;;;;;18.77;3.58;;;9.90;98.00;;;;;;5094633;28;20418;-76
2021/04/09 07:04:25;;;;;;;18.25;3.70;;;10.00;97.90;;;;;;5099923;28;20408;-75
2021/04/09 07:06:52;;;;;;;16.60;3.28;;;9.90;97.60;;;;;;5090397;28;20937;-74
2021/04/09 07:09:18;;;;;;;17.15;3.70;;;10.00;97.60;;;;;;5102592;28;20908;-74
2021/04/09 07:11:52;;;;;;;18.88;3.67;;;10.00;97.50;;;;;;5092274;28;20440;-74
2021/04/09 07:14:19;;;;;;;16.93;3.67;;;10.00;97.10;;;;;;5102005;28;20417;-74
2021/04/09 07:16:59;;;;;;;16.73;3.50;;;10.00;97.00;;;;;;5102039;28;20528;-74
2021/04/09 07:19:33;;;;;;;16.50;3.92;;;10.00;97.10;;;;;;5072558;28;20426;-74
2021/04/09 07:22:05;;;;;;;15.88;3.72;;;10.00;96.90;;;;;;5088417;28;20632;-75
2021/04/09 07:24:32;;;;;;;17.50;3.60;;;10.00;96.80;;;;;;5096352;28;20419;-74
2021/04/09 07:27:00;;;;;;;22.30;3.95;;;10.10;96.70;;;;;;5090203;28;20482;-75
2021/04/09 07:29:50;;;;;;;15.60;3.75;;;10.10;96.70;;;;;;5073617;28;20442;-74
2021/04/09 07:32:26;;;;;;;17.38;3.90;;;10.10;96.40;;;;;;5062976;28;20423;-75
2021/04/09 07:34:55;;;;;;;18.23;3.80;;;10.10;96.80;;;;;;5073907;28;20974;-75
2021/04/09 07:37:23;;;;;;;15.45;3.55;;;10.20;96.40;;;;;;5096861;28;20404;-74
2021/04/09 07:39:57;;;;;;;14.30;3.42;;;10.20;96.20;;;;;;5076271;28;20433;-74
2021/04/09 07:42:35;;;;;;;15.07;3.60;;;10.30;96.40;;;;;;5085818;28;20535;-75
2021/04/09 07:45:05;;;;;;;14.27;3.17;;;10.30;96.30;;;;;;5086542;28;20416;-81
2021/04/09 07:47:32;;;;;;;16.95;3.53;;;10.40;95.80;;;;;;5085658;28;20846;-76
2021/04/09 07:50:08;;;;;;;13.82;3.60;;;10.50;95.60;;;;;;5097825;28;20423;-74
2021/04/09 07:52:40;;;;;;;14.68;3.42;;;10.60;95.50;;;;;;5076415;28;20412;-75
2021/04/09 07:55:17;;;;;;;17.38;3.85;;;10.60;95.60;;;;;;5088974;28;20413;-74
2021/04/09 07:57:43;;;;;;;16.33;3.33;;;10.70;95.20;;;;;;5095691;28;20432;-75
2021/04/09 08:00:21;;;;;;;17.38;3.55;;;10.70;95.00;;;;;;5090148;28;20415;-81
2021/04/09 08:02:49;;;;;;;14.32;3.38;;;10.70;95.20;;;;;;5100615;28;20501;-76
2021/04/09 08:05:19;;;;;;;21.00;3.80;;;10.70;95.10;;;;;;5095351;28;20771;-76
2021/04/09 08:07:45;;;;;;;16.15;3.92;;;10.70;95.00;;;;;;5097386;28;20440;-75
2021/04/09 08:10:13;;;;;;;18.23;3.72;;;10.70;95.00;;;;;;5101201;28;20441;-74
2021/04/09 08:12:40;;;;;;;25.20;3.80;;;10.70;95.00;;;;;;5094546;28;20977;-74
2021/04/09 08:15:15;;;;;;;24.35;3.90;;;10.70;94.80;;;;;;5095210;28;20420;-76
2021/04/09 08:17:42;;;;;;;22.70;4.30;;;10.70;95.00;;;;;;5096172;28;20439;-75
2021/04/09 08:20:11;;;;;;;23.00;5.55;;;10.70;95.00;;;;;;5092860;28;20433;-75
2021/04/09 08:22:38;;;;;;;27.50;4.82;;;10.60;95.10;;;;;;5089516;28;20585;-75
2021/04/09 08:25:06;;;;;;;44.13;11.07;;;10.70;95.40;;;;;;5092983;28;20414;-75
2021/04/09 08:27:34;;;;;;;21.80;5.70;;;10.70;95.50;;;;;;5088657;28;20413;-76
2021/04/09 08:30:01;;;;;;;21.08;4.43;;;10.80;95.40;;;;;;5089525;28;20413;-75
2021/04/09 08:32:30;;;;;;;19.83;3.90;;;10.80;95.00;;;;;;5078880;28;20408;-74
2021/04/09 08:34:58;;;;;;;23.35;4.38;;;10.90;94.80;;;;;;5097894;28;20416;-74
2021/04/09 08:37:24;;;;;;;19.75;3.83;;;10.90;94.70;;;;;;5078277;28;20511;-75
2021/04/09 08:39:52;;;;;;;17.70;3.60;;;10.90;94.70;;;;;;5090813;28;20431;-75
2021/04/09 08:42:19;;;;;;;13.43;3.40;;;11.00;94.50;;;;;;5100417;28;20423;-75
2021/04/09 08:44:45;;;;;;;21.58;3.70;;;11.00;94.50;;;;;;5092644;28;20410;-76
2021/04/09 08:47:16;;;;;;;18.75;3.97;;;11.00;94.20;;;;;;5079933;28;20444;-76
2021/04/09 08:49:43;;;;;;;15.07;3.53;;;11.10;94.10;;;;;;5093203;28;20415;-74
2021/04/09 08:52:11;;;;;;;15.33;3.73;;;11.00;94.40;;;;;;5097362;28;20413;-75
2021/04/09 08:54:49;;;;;;;16.15;3.80;;;11.00;94.30;;;;;;5089800;28;20401;-76
2021/04/09 08:57:31;;;;;;;21.40;3.83;;;11.00;94.30;;;;;;5092284;28;20408;-74
2021/04/09 09:00:09;;;;;;;17.45;3.80;;;11.00;93.90;;;;;;5085390;28;20426;-75
2021/04/09 09:02:44;;;;;;;18.85;3.50;;;11.00;94.10;;;;;;5096467;28;20420;-77
2021/04/09 09:05:13;;;;;;;26.05;4.00;;;11.00;94.40;;;;;;5086391;28;20421;-75
2021/04/09 09:07:57;;;;;;;20.50;3.97;;;11.10;94.60;;;;;;5093023;28;20422;-73
2021/04/09 09:10:55;;;;;;;14.70;3.60;;;11.20;94.20;;;;;;5072448;28;20422;-74
2021/04/09 09:13:32;;;;;;;18.27;3.85;;;11.20;93.70;;;;;;5085164;28;20426;-75
2021/04/09 09:16:11;;;;;;;23.38;4.05;;;11.20;93.90;;;;;;5095149;28;20431;-72
2021/04/09 09:18:48;;;;;;;20.85;3.90;;;11.20;93.90;;;;;;5077707;28;20424;-72
2021/04/09 09:21:25;;;;;;;16.23;3.78;;;11.20;93.80;;;;;;5093976;28;20421;-76
2021/04/09 09:23:53;;;;;;;15.07;3.60;;;11.20;94.00;;;;;;5067433;28;20481;-73
2021/04/09 09:26:21;;;;;;;16.38;3.50;;;11.20;93.80;;;;;;5088565;28;20556;-74
2021/04/09 09:29:06;;;;;;;17.23;3.65;;;11.30;93.70;;;;;;5078937;28;20428;-75
2021/04/09 09:31:34;;;;;;;20.83;3.85;;;11.30;93.60;;;;;;5088182;28;20437;-74
2021/04/09 09:34:33;;;;;;;19.60;4.15;;;11.30;93.70;;;;;;5075143;28;20493;-78
2021/04/09 09:37:01;;;;;;;21.63;3.90;;;11.40;93.90;;;;;;5088549;28;20894;-74
2021/04/09 09:39:38;;;;;;;22.90;4.07;;;11.40;93.70;;;;;;5091067;28;20902;-75
2021/04/09 09:42:09;;;;;;;23.10;4.60;;;11.40;93.60;;;;;;5093275;28;20418;-74
2021/04/09 09:44:43;;;;;;;19.10;3.88;;;11.40;93.60;;;;;;5089826;28;20474;-74
2021/04/09 09:47:24;;;;;;;20.35;4.35;;;11.40;93.60;;;;;;5092812;28;20406;-78
2021/04/09 09:50:14;;;;;;;26.80;5.28;;;11.40;93.70;;;;;;5087385;28;20420;-74
2021/04/09 09:52:46;;;;;;;20.08;4.30;;;11.40;93.60;;;;;;5095588;28;20439;-74
2021/04/09 09:55:16;;;;;;;22.95;4.10;;;11.40;93.70;;;;;;5087514;28;20789;-75
2021/04/09 09:57:45;;;;;;;25.27;4.60;;;11.30;93.90;;;;;;5088657;28;20459;-75
2021/04/09 10:00:14;;;;;;;27.40;4.80;;;11.30;93.90;;;;;;5091099;28;20897;-78
2021/04/09 10:02:42;;;;;;;23.00;4.60;;;11.30;93.90;;;;;;5097357;28;20438;-79
2021/04/09 10:05:09;;;;;;;26.40;4.82;;;11.30;93.90;;;;;;5078338;28;20793;-77
2021/04/09 10:07:37;;;;;;;19.27;4.28;;;11.30;94.00;;;;;;5097414;28;20413;-75
2021/04/09 10:10:06;;;;;;;19.20;4.20;;;11.40;94.00;;;;;;5100042;28;20413;-75
2021/04/09 10:12:32;;;;;;;20.52;4.47;;;11.40;93.60;;;;;;5089720;28;20410;-74
2021/04/09 10:14:58;;;;;;;18.42;4.80;;;11.50;93.60;;;;;;5088319;28;20434;-74
2021/04/09 10:17:26;;;;;;;31.55;4.53;;;11.50;93.60;;;;;;5094272;28;20417;-74
2021/04/09 10:20:00;;;;;;;18.17;4.40;;;11.60;93.20;;;;;;5097449;28;20867;-75
2021/04/09 10:22:28;;;;;;;17.00;4.43;;;11.60;92.70;;;;;;5095357;28;20471;-74
2021/04/09 10:24:54;;;;;;;13.48;3.90;;;11.60;92.90;;;;;;5078994;28;20403;-74
2021/04/09 10:27:20;;;;;;;22.65;4.25;;;11.70;92.90;;;;;;5073051;28;20422;-74
2021/04/09 10:29:47;;;;;;;18.27;4.30;;;11.70;92.80;;;;;;5094797;28;20900;-74
2021/04/09 10:32:18;;;;;;;20.80;4.40;;;11.70;92.40;;;;;;5073736;28;20414;-75
2021/04/09 10:34:49;;;;;;;20.33;4.18;;;11.60;92.60;;;;;;5091338;28;20462;-73
2021/04/09 10:37:20;;;;;;;16.20;4.28;;;11.60;92.80;;;;;;5089607;28;20423;-74
2021/04/09 10:39:46;;;;;;;21.83;3.65;;;11.60;92.90;;;;;;5092387;28;20428;-74
2021/04/09 10:42:13;;;;;;;18.85;4.15;;;11.70;93.00;;;;;;5094702;28;20423;-73
2021/04/09 10:44:39;;;;;;;19.27;4.20;;;11.70;92.50;;;;;;5077124;28;20542;-75
2021/04/09 10:47:07;;;;;;;20.55;4.18;;;11.70;92.40;;;;;;5096494;28;20424;-74
2021/04/09 10:49:35;;;;;;;15.18;4.15;;;11.80;92.20;;;;;;5093282;28;20447;-75
2021/04/09 10:52:07;;;;;;;17.33;4.10;;;11.90;92.80;;;;;;5091740;28;20499;-74
2021/04/09 10:54:35;;;;;;;13.70;3.95;;;12.00;92.10;;;;;;5095832;28;20474;-75
2021/04/09 10:57:03;;;;;;;13.25;4.53;;;12.10;91.80;;;;;;5074411;28;20824;-74
2021/04/09 10:59:32;;;;;;;17.88;4.30;;;12.20;90.90;;;;;;5096994;28;20436;-77
2021/04/09 11:01:59;;;;;;;16.33;4.47;;;12.20;90.80;;;;;;5091381;28;20405;-75
2021/04/09 11:04:27;;;;;;;19.30;4.43;;;12.20;90.50;;;;;;5094785;28;20886;-75
2021/04/09 11:06:57;;;;;;;15.05;4.38;;;12.20;90.60;;;;;;5093015;28;20422;-76
2021/04/09 11:09:36;;;;;;;23.20;4.60;;;12.20;90.60;;;;;;5072153;28;20424;-73
2021/04/09 11:12:19;;;;;;;19.05;3.97;;;12.20;90.60;;;;;;5092932;28;20477;-73
2021/04/09 11:14:46;;;;;;;13.93;4.00;;;12.20;90.80;;;;;;5100078;28;20743;-74
2021/04/09 11:17:22;;;;;;;14.52;3.70;;;12.20;90.60;;;;;;5093657;28;20515;-74
2021/04/09 11:19:53;;;;;;;13.35;4.00;;;12.30;90.70;;;;;;5094429;28;20427;-73
2021/04/09 11:22:20;;;;;;;16.70;4.10;;;12.40;90.40;;;;;;5095813;28;20417;-74
2021/04/09 11:24:58;;;;;;;15.97;4.13;;;12.40;90.00;;;;;;5095579;28;20410;-74
2021/04/09 11:27:26;;;;;;;13.35;3.65;;;12.60;89.40;;;;;;5093982;28;20793;-74
2021/04/09 11:30:07;;;;;;;12.68;3.95;;;12.60;88.70;;;;;;5089354;28;20413;-75
2021/04/09 11:32:39;;;;;;;14.93;4.45;;;12.70;87.50;;;;;;5089541;28;20422;-74
2021/04/09 11:35:10;;;;;;;15.00;3.78;;;12.70;86.60;;;;;;5089927;28;20890;-74
2021/04/09 11:37:43;;;;;;;14.85;4.18;;;12.70;86.00;;;;;;5090861;28;20482;-74
2021/04/09 11:40:12;;;;;;;12.98;3.78;;;12.70;86.60;;;;;;5088364;28;20421;-75
2021/04/09 11:42:39;;;;;;;11.75;3.70;;;12.80;87.30;;;;;;5089585;28;20463;-75
2021/04/09 11:45:07;;;;;;;15.55;4.30;;;12.90;86.50;;;;;;5073429;28;20425;-76
2021/04/09 11:47:35;;;;;;;12.70;3.63;;;13.10;85.70;;;;;;5076400;28;20566;-75
2021/04/09 11:50:08;;;;;;;15.70;3.72;;;13.20;84.90;;;;;;5090572;28;20420;-74
2021/04/09 11:52:51;;;;;;;12.98;4.18;;;13.20;84.50;;;;;;5072138;28;20417;-74
2021/04/09 11:55:19;;;;;;;12.90;4.13;;;13.30;83.70;;;;;;5089433;28;20421;-75
2021/04/09 11:57:46;;;;;;;12.88;4.05;;;13.30;83.10;;;;;;5071856;28;20450;-74
2021/04/09 12:00:21;;;;;;;18.90;4.22;;;13.30;83.20;;;;;;5069358;28;20429;-75
2021/04/09 12:02:57;;;;;;;16.75;4.40;;;13.30;83.40;;;;;;5093460;28;20421;-75
2021/04/09 12:05:24;;;;;;;19.83;4.35;;;13.30;83.60;;;;;;5071323;28;20486;-74
2021/04/09 12:07:51;;;;;;;18.42;4.40;;;13.30;83.60;;;;;;5091094;28;20402;-75
2021/04/09 12:10:21;;;;;;;19.27;4.97;;;13.30;83.00;;;;;;5097629;28;20423;-74
2021/04/09 12:12:48;;;;;;;17.37;4.70;;;13.40;83.20;;;;;;5089953;28;20506;-75
2021/04/09 12:15:15;;;;;;;14.57;4.20;;;13.40;82.80;;;;;;5093713;28;20436;-75
2021/04/09 12:17:41;;;;;;;14.50;4.15;;;13.40;82.40;;;;;;5098530;28;20921;-75
2021/04/09 12:20:11;;;;;;;12.48;4.00;;;13.40;83.30;;;;;;5087597;28;21024;-76
2021/04/09 12:22:38;;;;;;;12.82;4.32;;;13.40;81.90;;;;;;5087882;28;20476;-75
2021/04/09 12:25:06;;;;;;;15.93;4.47;;;13.40;81.80;;;;;;5090012;28;20441;-75
2021/04/09 12:27:35;;;;;;;19.52;4.70;;;13.40;81.60;;;;;;5089669;28;20421;-74
2021/04/09 12:30:02;;;;;;;15.98;4.75;;;13.40;82.40;;;;;;5090069;28;20550;-75
2021/04/09 12:32:28;;;;;;;23.10;4.45;;;13.40;82.60;;;;;;5072432;28;20929;-75
2021/04/09 12:34:55;;;;;;;20.43;4.50;;;13.50;82.30;;;;;;5075784;28;21099;-75
2021/04/09 12:37:22;;;;;;;12.55;4.05;;;13.60;80.80;;;;;;5091468;28;20803;-75
2021/04/09 12:39:48;;;;;;;20.05;4.53;;;13.70;81.00;;;;;;5090179;28;20989;-74
2021/04/09 12:42:15;;;;;;;17.77;4.70;;;13.80;81.60;;;;;;5092084;28;20489;-75
2021/04/09 12:44:43;;;;;;;17.77;4.70;;;13.80;80.30;;;;;;5091993;28;20414;-76
2021/04/09 12:47:09;;;;;;;15.07;4.60;;;13.90;79.60;;;;;;5093892;28;20887;-76
2021/04/09 12:49:36;;;;;;;13.88;4.53;;;14.00;79.60;;;;;;5089629;28;20874;-75